createdAt,value
2022-11-27T00:02:44.930Z,7.57
2022-11-27T00:06:46.748Z,7.58
2022-11-27T00:10:50.178Z,7.54
2022-11-27T00:14:55.418Z,7.41
2022-11-27T00:18:58.099Z,7.24
2022-11-27T00:23:01.163Z,7.04
2022-11-27T00:27:02.899Z,6.85
2022-11-27T00:31:12.376Z,6.66
2022-11-27T00:35:14.133Z,6.49
2022-11-27T00:48:51.102Z,5.99
2022-11-27T00:53:31.592Z,5.86
2022-11-27T00:57:33.707Z,5.75
2022-11-27T01:01:42.442Z,5.63
2022-11-27T01:05:54.441Z,5.55
2022-11-27T01:10:06.818Z,5.46
2022-11-27T01:19:30.945Z,5.30
2022-11-27T01:23:45.547Z,5.24
2022-11-27T01:27:47.233Z,5.19
2022-11-27T01:31:49.007Z,5.14
2022-11-27T01:36:02.035Z,5.08
2022-11-27T01:40:03.907Z,5.03
2022-11-27T01:44:23.656Z,5.00
2022-11-27T01:48:25.298Z,4.94
2022-11-27T01:52:33.653Z,4.90
2022-11-27T01:56:35.618Z,4.88
2022-11-27T02:00:38.341Z,4.85
2022-11-27T02:04:40.371Z,4.83
2022-11-27T02:08:42.564Z,4.77
2022-11-27T02:12:55.129Z,4.74
2022-11-27T02:17:13.896Z,4.70
2022-11-27T02:21:39.351Z,4.68
2022-11-27T02:26:05.231Z,4.64
2022-11-27T02:30:07.526Z,4.62
2022-11-27T02:34:18.184Z,4.60
2022-11-27T02:38:30.654Z,4.59
2022-11-27T02:42:46.396Z,4.59
2022-11-27T02:46:49.466Z,4.56
2022-11-27T02:50:53.152Z,4.53
2022-11-27T02:54:57.470Z,4.48
2022-11-27T02:59:08.982Z,4.43
2022-11-27T03:03:16.705Z,4.42
2022-11-27T03:07:26.592Z,4.37
2022-11-27T03:11:30.901Z,4.36
2022-11-27T03:16:09.036Z,4.32
2022-11-27T03:20:21.648Z,4.31
2022-11-27T03:24:24.006Z,4.29
2022-11-27T03:28:28.459Z,4.29
2022-11-27T03:32:31.104Z,4.27
2022-11-27T03:36:32.751Z,4.24
2022-11-27T03:40:52.432Z,4.21
2022-11-27T03:45:25.480Z,4.17
2022-11-27T03:49:52.225Z,4.15
2022-11-27T03:54:03.534Z,4.12
2022-11-27T03:58:12.392Z,4.11
2022-11-27T04:02:15.461Z,4.08
2022-11-27T04:06:17.766Z,4.06
2022-11-27T04:10:19.721Z,4.04
2022-11-27T04:14:21.302Z,4.02
2022-11-27T04:18:22.947Z,4.01
2022-11-27T04:22:24.629Z,3.94
2022-11-27T04:26:26.211Z,3.91
2022-11-27T04:30:27.844Z,3.88
2022-11-27T04:34:29.450Z,3.87
2022-11-27T04:38:31.278Z,3.84
2022-11-27T04:42:33.503Z,3.82
2022-11-27T04:46:36.421Z,3.82
2022-11-27T05:04:40.917Z,3.73
2022-11-27T05:08:43.070Z,3.70
2022-11-27T05:12:44.757Z,3.70
2022-11-27T05:17:00.618Z,3.70
2022-11-27T05:21:08.107Z,3.70
2022-11-27T05:25:09.949Z,3.65
2022-11-27T05:29:12.585Z,3.60
2022-11-27T05:33:15.431Z,3.55
2022-11-27T05:37:19.721Z,3.49
2022-11-27T05:41:22.699Z,3.40
2022-11-27T05:45:24.379Z,3.32
2022-11-27T05:49:26.181Z,3.28
2022-11-27T05:53:27.805Z,3.25
2022-11-27T05:57:31.039Z,3.26
2022-11-27T06:01:32.813Z,3.28
2022-11-27T06:05:38.814Z,3.29
2022-11-27T06:09:40.452Z,3.30
2022-11-27T06:13:42.474Z,3.37
2022-11-27T06:17:44.042Z,3.40
2022-11-27T06:21:46.708Z,3.38
2022-11-27T06:25:48.351Z,3.36
2022-11-27T06:29:50.021Z,3.32
2022-11-27T06:33:53.438Z,3.33
2022-11-27T06:37:54.969Z,3.47
2022-11-27T06:41:56.591Z,3.61
2022-11-27T06:46:00.879Z,3.63
2022-11-27T06:50:02.615Z,3.70
2022-11-27T06:54:04.388Z,3.76
2022-11-27T06:58:05.976Z,3.84
2022-11-27T07:02:13.776Z,3.88
2022-11-27T07:06:20.871Z,3.91
2022-11-27T07:10:22.693Z,3.89
2022-11-27T07:14:24.247Z,4.01
2022-11-27T07:18:25.837Z,4.14
2022-11-27T07:22:27.390Z,4.21
2022-11-27T07:26:29.992Z,4.21
2022-11-27T07:30:31.659Z,4.30
2022-11-27T07:34:33.257Z,4.36
2022-11-27T07:38:35.108Z,4.39
2022-11-27T07:42:38.423Z,4.47
2022-11-27T07:46:41.611Z,4.48
2022-11-27T07:50:43.430Z,4.48
2022-11-27T07:54:45.041Z,4.51
2022-11-27T07:58:47.105Z,4.59
2022-11-27T08:02:48.694Z,4.63
2022-11-27T08:06:50.562Z,4.66
2022-11-27T08:10:52.323Z,4.64
2022-11-27T08:14:53.992Z,4.75
2022-11-27T08:18:55.735Z,4.87
2022-11-27T08:23:02.714Z,4.82
2022-11-27T08:27:05.006Z,4.86
2022-11-27T08:31:09.218Z,4.91
2022-11-27T08:35:11.937Z,5.02
2022-11-27T08:39:14.513Z,4.97
2022-11-27T08:43:16.083Z,5.04
2022-11-27T08:47:17.800Z,5.02
2022-11-27T08:51:19.588Z,4.92
2022-11-27T08:55:21.177Z,4.87
2022-11-27T08:59:22.827Z,4.77
2022-11-27T09:03:24.577Z,4.72
2022-11-27T09:07:26.206Z,4.79
2022-11-27T09:11:29.522Z,5.09
2022-11-27T09:15:31.172Z,5.44
2022-11-27T09:19:32.854Z,5.69
2022-11-27T09:23:35.149Z,5.71
2022-11-27T09:27:38.429Z,5.84
2022-11-27T09:31:40.231Z,5.80
2022-11-27T09:35:41.869Z,5.81
2022-11-27T09:39:43.540Z,5.66
2022-11-27T09:44:03.565Z,5.90
2022-11-27T09:48:11.537Z,6.14
2022-11-27T09:52:34.804Z,6.23
2022-11-27T09:56:36.729Z,6.17
2022-11-27T10:00:38.301Z,6.20
2022-11-27T10:05:05.905Z,6.31
2022-11-27T10:09:20.327Z,6.52
2022-11-27T10:14:02.650Z,6.70
2022-11-27T10:18:23.504Z,6.73
2022-11-27T10:22:41.481Z,6.73
2022-11-27T10:26:47.015Z,6.57
2022-11-27T10:30:58.132Z,6.58
2022-11-27T10:35:04.839Z,6.79
2022-11-27T10:39:16.245Z,7.02
2022-11-27T10:43:23.355Z,7.09
2022-11-27T10:47:32.296Z,7.10
2022-11-27T10:51:38.271Z,7.20
2022-11-27T10:55:45.884Z,7.38
2022-11-27T11:00:06.168Z,7.51
2022-11-27T11:04:31.263Z,7.44
2022-11-27T11:08:31.474Z,7.41
2022-11-27T11:12:33.355Z,7.44
2022-11-27T11:16:42.803Z,7.36
2022-11-27T11:20:48.715Z,7.23
2022-11-27T11:24:53.206Z,7.21
2022-11-27T11:28:57.716Z,7.24
2022-11-27T11:33:04.191Z,7.34
2022-11-27T11:37:17.506Z,7.46
2022-11-27T11:41:20.289Z,7.71
2022-11-27T11:45:22.788Z,7.83
2022-11-27T11:49:26.755Z,8.04
2022-11-27T11:53:36.600Z,8.43
2022-11-27T11:58:00.162Z,8.47
2022-11-27T12:02:16.907Z,8.56
2022-11-27T12:06:32.882Z,8.78
2022-11-27T12:11:07.034Z,8.79
2022-11-27T12:15:23.829Z,8.85
2022-11-27T12:19:50.313Z,8.83
2022-11-27T12:24:10.136Z,8.63
2022-11-27T12:28:48.439Z,8.65
2022-11-27T12:32:58.070Z,8.55
2022-11-27T12:37:30.718Z,8.34
2022-11-27T12:42:21.605Z,8.21
2022-11-27T12:46:23.690Z,8.02
2022-11-27T12:50:44.011Z,7.81
2022-11-27T12:55:00.679Z,7.76
2022-11-27T12:59:33.461Z,7.53
2022-11-27T13:03:46.393Z,7.71
2022-11-27T13:08:00.992Z,7.86
2022-11-27T13:12:03.626Z,7.94
2022-11-27T13:16:45.988Z,8.08
2022-11-27T13:20:52.575Z,8.02
2022-11-27T13:25:09.403Z,7.86
2022-11-27T13:29:27.506Z,7.87
2022-11-27T13:33:43.399Z,7.78
2022-11-27T13:37:49.726Z,7.62
2022-11-27T13:42:26.020Z,7.51
2022-11-27T13:46:32.543Z,7.53
2022-11-27T13:50:45.318Z,7.48
2022-11-27T13:55:05.577Z,7.42
2022-11-27T13:59:23.280Z,7.36
2022-11-27T14:03:28.254Z,7.37
2022-11-27T14:07:42.880Z,7.41
2022-11-27T14:11:50.182Z,7.47
2022-11-27T14:16:05.053Z,7.49
2022-11-27T14:20:35.791Z,7.52
2022-11-27T14:24:44.801Z,7.60
2022-11-27T14:29:02.230Z,7.63
2022-11-27T14:33:19.728Z,7.58
2022-11-27T14:37:31.506Z,7.60
2022-11-27T14:41:36.112Z,7.64
2022-11-27T14:45:38.562Z,7.63
2022-11-27T14:49:42.221Z,7.63
2022-11-27T14:53:49.345Z,7.60
2022-11-27T14:58:09.088Z,7.51
2022-11-27T15:03:04.778Z,7.25
2022-11-27T15:07:55.397Z,7.10
2022-11-27T15:12:36.177Z,7.03
2022-11-27T15:17:13.562Z,6.97
2022-11-27T15:21:41.195Z,6.99
2022-11-27T15:25:48.947Z,7.03
2022-11-27T15:30:34.482Z,7.08
2022-11-27T15:34:46.261Z,7.10
2022-11-27T15:39:22.869Z,7.12
2022-11-27T15:43:25.173Z,7.13
2022-11-27T15:47:31.137Z,7.16
2022-11-27T15:51:47.815Z,7.17
2022-11-27T15:55:52.343Z,7.21
2022-11-27T15:59:54.198Z,7.20
2022-11-27T16:15:06.443Z,7.21
2022-11-27T17:08:07.590Z,7.38
2022-11-27T17:28:23.976Z,7.34
2022-11-27T17:53:10.624Z,7.35
2022-11-27T17:57:48.437Z,7.29
2022-11-27T18:06:32.969Z,7.33
2022-11-27T18:10:43.548Z,7.33
2022-11-27T18:14:48.352Z,7.35
2022-11-27T18:19:20.888Z,7.38
2022-11-27T18:28:16.152Z,7.40
2022-11-27T18:37:02.859Z,7.41
2022-11-27T18:41:30.035Z,7.43
2022-11-27T18:45:54.842Z,7.43
2022-11-27T18:50:04.539Z,7.49
2022-11-27T18:54:09.282Z,7.56
2022-11-27T18:58:12.959Z,7.61
2022-11-27T19:02:15.368Z,7.66
2022-11-27T19:06:35.726Z,7.71
2022-11-27T19:10:46.070Z,7.79
2022-11-27T19:14:51.281Z,7.83
2022-11-27T19:18:56.846Z,7.86
2022-11-27T19:23:01.214Z,7.84
2022-11-27T19:27:03.728Z,7.85
2022-11-27T19:31:13.378Z,7.89
2022-11-27T19:35:22.203Z,7.87
2022-11-27T19:39:28.509Z,7.89
2022-11-27T19:44:08.951Z,7.85
2022-11-27T19:48:23.106Z,7.86
2022-11-27T19:52:32.411Z,7.87
2022-11-27T19:56:35.755Z,7.87
2022-11-27T20:00:37.551Z,7.89
2022-11-27T20:04:39.475Z,7.85
2022-11-27T20:08:42.617Z,7.90
2022-11-27T20:12:44.229Z,7.92
2022-11-27T20:16:46.643Z,7.95
2022-11-27T20:20:48.762Z,8.00
2022-11-27T20:25:17.365Z,8.05
2022-11-27T20:29:13.666Z,8.08
2022-11-27T20:33:17.829Z,8.10
2022-11-27T20:37:19.602Z,8.06
2022-11-27T20:41:22.526Z,7.99
2022-11-27T20:45:24.450Z,7.92
2022-11-27T20:49:26.018Z,7.85
2022-11-27T20:53:27.817Z,7.84
2022-11-27T20:57:29.414Z,7.79
2022-11-27T21:01:34.383Z,7.66
2022-11-27T21:05:38.706Z,7.64
2022-11-27T21:09:40.713Z,7.62
2022-11-27T21:13:43.062Z,7.59
2022-11-27T21:17:44.839Z,7.58
2022-11-27T21:21:47.737Z,7.52
2022-11-27T22:08:31.898Z,7.35
2022-11-27T22:12:33.976Z,7.37
2022-11-27T22:16:44.338Z,7.41
2022-11-27T22:20:47.347Z,7.41
2022-11-27T22:24:49.082Z,7.35
2022-11-27T22:28:51.802Z,7.35
2022-11-27T22:32:56.064Z,7.39
2022-11-27T22:36:57.629Z,7.38
2022-11-27T22:40:59.469Z,7.39
2022-11-27T22:45:01.249Z,7.40
2022-11-27T22:49:05.658Z,7.40
2022-11-27T22:53:07.330Z,7.38
2022-11-27T22:57:08.939Z,7.34
2022-11-27T23:01:15.581Z,7.33
2022-11-27T23:05:17.327Z,7.31
2022-11-27T23:09:19.624Z,7.29
2022-11-27T23:13:21.183Z,7.26
2022-11-27T23:17:24.241Z,7.23
2022-11-27T23:21:27.333Z,7.20
2022-11-27T23:25:30.886Z,7.17
2022-11-27T23:29:32.495Z,7.13
2022-11-27T23:33:34.135Z,7.06
2022-11-27T23:37:35.745Z,6.98
2022-11-27T23:41:37.393Z,6.91
2022-11-27T23:45:38.998Z,6.86
2022-11-27T23:49:42.181Z,6.82
2022-11-27T23:53:44.270Z,6.82
2022-11-27T23:57:45.862Z,6.80
